sensor_id;sensor_type;location;lat;lon;timestamp;temperature;humidity
6988;DHT22;3534;49.960;8.018;2024-02-21T00:00:45;10.70;99.90
6988;DHT22;3534;49.960;8.018;2024-02-21T00:03:12;10.70;99.90
6988;DHT22;3534;49.960;8.018;2024-02-21T00:05:38;10.60;99.90
6988;DHT22;3534;49.960;8.018;2024-02-21T00:08:05;10.60;99.90
6988;DHT22;3534;49.960;8.018;2024-02-21T00:10:32;10.60;99.90
6988;DHT22;3534;49.960;8.018;2024-02-21T00:13:00;10.60;99.90
6988;DHT22;3534;49.960;8.018;2024-02-21T00:15:26;10.60;99.90
6988;DHT22;3534;49.960;8.018;2024-02-21T00:17:53;10.60;99.90
6988;DHT22;3534;49.960;8.018;2024-02-21T00:20:20;10.50;99.90
6988;DHT22;3534;49.960;8.018;2024-02-21T00:22:46;10.50;99.90
6988;DHT22;3534;49.960;8.018;2024-02-21T00:25:13;10.50;99.90
6988;DHT22;3534;49.960;8.018;2024-02-21T00:27:40;10.50;99.90
6988;DHT22;3534;49.960;8.018;2024-02-21T00:30:09;10.50;99.90
6988;DHT22;3534;49.960;8.018;2024-02-21T00:32:36;10.50;99.90
6988;DHT22;3534;49.960;8.018;2024-02-21T00:35:03;10.40;99.90
6988;DHT22;3534;49.960;8.018;2024-02-21T00:37:31;10.40;99.90
6988;DHT22;3534;49.960;8.018;2024-02-21T00:39:57;10.40;99.90
6988;DHT22;3534;49.960;8.018;2024-02-21T00:42:24;10.30;99.90
6988;DHT22;3534;49.960;8.018;2024-02-21T00:44:51;10.30;99.90
6988;DHT22;3534;49.960;8.018;2024-02-21T00:47:19;10.30;99.90
6988;DHT22;3534;49.960;8.018;2024-02-21T00:49:45;10.30;99.90
6988;DHT22;3534;49.960;8.018;2024-02-21T00:52:12;10.30;99.90
6988;DHT22;3534;49.960;8.018;2024-02-21T00:54:38;10.30;99.90
6988;DHT22;3534;49.960;8.018;2024-02-21T00:57:05;10.40;99.90
6988;DHT22;3534;49.960;8.018;2024-02-21T00:59:32;10.40;99.90
6988;DHT22;3534;49.960;8.018;2024-02-21T01:01:58;10.40;99.90
6988;DHT22;3534;49.960;8.018;2024-02-21T01:04:27;10.30;99.90
6988;DHT22;3534;49.960;8.018;2024-02-21T01:06:53;10.30;99.90
6988;DHT22;3534;49.960;8.018;2024-02-21T01:09:20;10.30;99.90
6988;DHT22;3534;49.960;8.018;2024-02-21T01:11:46;10.30;99.90
6988;DHT22;3534;49.960;8.018;2024-02-21T01:14:13;10.30;99.90
6988;DHT22;3534;49.960;8.018;2024-02-21T01:16:40;10.30;99.90
6988;DHT22;3534;49.960;8.018;2024-02-21T01:19:06;10.30;99.90
6988;DHT22;3534;49.960;8.018;2024-02-21T01:21:34;10.30;99.90
6988;DHT22;3534;49.960;8.018;2024-02-21T01:24:01;10.30;99.90
6988;DHT22;3534;49.960;8.018;2024-02-21T01:26:28;10.30;99.90
6988;DHT22;3534;49.960;8.018;2024-02-21T01:28:54;10.30;99.90
6988;DHT22;3534;49.960;8.018;2024-02-21T01:31:21;10.30;99.90
6988;DHT22;3534;49.960;8.018;2024-02-21T01:33:48;10.30;99.90
6988;DHT22;3534;49.960;8.018;2024-02-21T01:36:14;10.30;99.90
6988;DHT22;3534;49.960;8.018;2024-02-21T01:38:42;10.30;99.90
6988;DHT22;3534;49.960;8.018;2024-02-21T01:41:09;10.30;99.90
6988;DHT22;3534;49.960;8.018;2024-02-21T01:43:36;10.30;99.90
6988;DHT22;3534;49.960;8.018;2024-02-21T01:46:03;10.20;99.90
6988;DHT22;3534;49.960;8.018;2024-02-21T01:48:29;10.20;99.90
6988;DHT22;3534;49.960;8.018;2024-02-21T01:50:56;10.30;99.90
6988;DHT22;3534;49.960;8.018;2024-02-21T01:53:30;10.30;99.90
6988;DHT22;3534;49.960;8.018;2024-02-21T01:55:58;10.30;99.90
6988;DHT22;3534;49.960;8.018;2024-02-21T01:58:25;10.30;99.90
6988;DHT22;3534;49.960;8.018;2024-02-21T02:00:53;10.30;99.90
6988;DHT22;3534;49.960;8.018;2024-02-21T02:03:20;10.30;99.90
6988;DHT22;3534;49.960;8.018;2024-02-21T02:05:48;10.30;99.90
6988;DHT22;3534;49.960;8.018;2024-02-21T02:08:15;10.40;99.90
6988;DHT22;3534;49.960;8.018;2024-02-21T02:10:42;10.40;99.90
6988;DHT22;3534;49.960;8.018;2024-02-21T02:13:11;10.30;99.90
6988;DHT22;3534;49.960;8.018;2024-02-21T02:15:39;10.30;99.90
6988;DHT22;3534;49.960;8.018;2024-02-21T02:18:05;10.30;99.90
6988;DHT22;3534;49.960;8.018;2024-02-21T02:20:32;10.30;99.90
6988;DHT22;3534;49.960;8.018;2024-02-21T02:22:59;10.30;99.90
6988;DHT22;3534;49.960;8.018;2024-02-21T02:25:27;10.30;99.90
6988;DHT22;3534;49.960;8.018;2024-02-21T02:27:54;10.30;99.90
6988;DHT22;3534;49.960;8.018;2024-02-21T02:30:27;10.30;99.90
6988;DHT22;3534;49.960;8.018;2024-02-21T02:32:55;10.30;99.90
6988;DHT22;3534;49.960;8.018;2024-02-21T02:35:21;10.30;99.90
6988;DHT22;3534;49.960;8.018;2024-02-21T02:37:48;10.30;99.90
6988;DHT22;3534;49.960;8.018;2024-02-21T02:40:16;10.30;99.90
6988;DHT22;3534;49.960;8.018;2024-02-21T02:42:44;10.20;99.90
6988;DHT22;3534;49.960;8.018;2024-02-21T02:45:11;10.20;99.90
6988;DHT22;3534;49.960;8.018;2024-02-21T02:47:39;10.20;99.90
6988;DHT22;3534;49.960;8.018;2024-02-21T02:50:07;10.20;99.90
6988;DHT22;3534;49.960;8.018;2024-02-21T02:52:34;10.20;99.90
6988;DHT22;3534;49.960;8.018;2024-02-21T02:55:00;10.30;99.90
6988;DHT22;3534;49.960;8.018;2024-02-21T02:57:27;10.30;99.90
6988;DHT22;3534;49.960;8.018;2024-02-21T02:59:55;10.30;99.90
6988;DHT22;3534;49.960;8.018;2024-02-21T03:02:22;10.30;99.90
6988;DHT22;3534;49.960;8.018;2024-02-21T03:04:48;10.40;99.90
6988;DHT22;3534;49.960;8.018;2024-02-21T03:07:15;10.30;99.90
6988;DHT22;3534;49.960;8.018;2024-02-21T03:09:42;10.40;99.90
6988;DHT22;3534;49.960;8.018;2024-02-21T03:12:09;10.30;99.90
6988;DHT22;3534;49.960;8.018;2024-02-21T03:14:36;10.30;99.90
6988;DHT22;3534;49.960;8.018;2024-02-21T03:17:04;10.30;99.90
6988;DHT22;3534;49.960;8.018;2024-02-21T03:19:31;10.30;99.90
6988;DHT22;3534;49.960;8.018;2024-02-21T03:21:58;10.30;99.90
6988;DHT22;3534;49.960;8.018;2024-02-21T03:24:25;10.30;99.90
6988;DHT22;3534;49.960;8.018;2024-02-21T03:26:51;10.30;99.90
6988;DHT22;3534;49.960;8.018;2024-02-21T03:29:18;10.30;99.90
6988;DHT22;3534;49.960;8.018;2024-02-21T03:31:45;10.40;99.90
6988;DHT22;3534;49.960;8.018;2024-02-21T03:34:13;10.40;99.90
6988;DHT22;3534;49.960;8.018;2024-02-21T03:36:39;10.40;99.90
6988;DHT22;3534;49.960;8.018;2024-02-21T03:39:06;10.40;99.90
6988;DHT22;3534;49.960;8.018;2024-02-21T03:41:34;10.30;99.90
6988;DHT22;3534;49.960;8.018;2024-02-21T03:44:01;10.30;99.90
6988;DHT22;3534;49.960;8.018;2024-02-21T03:46:28;10.30;99.90
6988;DHT22;3534;49.960;8.018;2024-02-21T03:48:54;10.20;99.90
6988;DHT22;3534;49.960;8.018;2024-02-21T03:51:22;10.20;99.90
6988;DHT22;3534;49.960;8.018;2024-02-21T03:53:49;10.20;99.90
6988;DHT22;3534;49.960;8.018;2024-02-21T03:56:16;10.20;99.90
6988;DHT22;3534;49.960;8.018;2024-02-21T03:58:42;10.20;99.90
6988;DHT22;3534;49.960;8.018;2024-02-21T04:01:09;10.10;99.90
6988;DHT22;3534;49.960;8.018;2024-02-21T04:03:36;10.10;99.90
6988;DHT22;3534;49.960;8.018;2024-02-21T04:06:03;10.10;99.90
6988;DHT22;3534;49.960;8.018;2024-02-21T04:08:31;10.10;99.90
6988;DHT22;3534;49.960;8.018;2024-02-21T04:10:58;10.10;99.90
6988;DHT22;3534;49.960;8.018;2024-02-21T04:13:25;10.10;99.90
6988;DHT22;3534;49.960;8.018;2024-02-21T04:15:52;10.10;99.90
6988;DHT22;3534;49.960;8.018;2024-02-21T04:18:19;10.10;99.90
6988;DHT22;3534;49.960;8.018;2024-02-21T04:20:45;10.10;99.90
6988;DHT22;3534;49.960;8.018;2024-02-21T04:23:12;10.10;99.90
6988;DHT22;3534;49.960;8.018;2024-02-21T04:25:40;10.00;99.90
6988;DHT22;3534;49.960;8.018;2024-02-21T04:28:07;10.00;99.90
6988;DHT22;3534;49.960;8.018;2024-02-21T04:30:34;10.00;99.90
6988;DHT22;3534;49.960;8.018;2024-02-21T04:33:00;10.00;99.90
6988;DHT22;3534;49.960;8.018;2024-02-21T04:35:27;10.00;99.90
6988;DHT22;3534;49.960;8.018;2024-02-21T04:37:54;10.00;99.90
6988;DHT22;3534;49.960;8.018;2024-02-21T04:40:21;10.00;99.90
6988;DHT22;3534;49.960;8.018;2024-02-21T04:42:49;10.00;99.90
6988;DHT22;3534;49.960;8.018;2024-02-21T04:45:15;9.90;99.90
6988;DHT22;3534;49.960;8.018;2024-02-21T04:47:43;10.00;99.90
6988;DHT22;3534;49.960;8.018;2024-02-21T04:50:10;10.00;99.90
6988;DHT22;3534;49.960;8.018;2024-02-21T04:52:36;10.00;99.90
6988;DHT22;3534;49.960;8.018;2024-02-21T04:55:03;10.00;99.90
6988;DHT22;3534;49.960;8.018;2024-02-21T04:57:30;10.00;99.90
6988;DHT22;3534;49.960;8.018;2024-02-21T04:59:58;10.00;99.90
6988;DHT22;3534;49.960;8.018;2024-02-21T05:02:25;10.00;99.90
6988;DHT22;3534;49.960;8.018;2024-02-21T05:04:52;10.00;99.90
6988;DHT22;3534;49.960;8.018;2024-02-21T05:07:19;10.00;99.90
6988;DHT22;3534;49.960;8.018;2024-02-21T05:09:46;10.00;99.90
6988;DHT22;3534;49.960;8.018;2024-02-21T05:12:12;10.00;99.90
6988;DHT22;3534;49.960;8.018;2024-02-21T05:14:39;10.00;99.90
6988;DHT22;3534;49.960;8.018;2024-02-21T05:17:07;10.00;99.90
6988;DHT22;3534;49.960;8.018;2024-02-21T05:19:34;10.00;99.90
6988;DHT22;3534;49.960;8.018;2024-02-21T05:22:00;9.90;99.90
6988;DHT22;3534;49.960;8.018;2024-02-21T05:24:27;10.00;99.90
6988;DHT22;3534;49.960;8.018;2024-02-21T05:26:55;10.00;99.90
6988;DHT22;3534;49.960;8.018;2024-02-21T05:29:22;10.00;99.90
6988;DHT22;3534;49.960;8.018;2024-02-21T05:31:57;10.00;99.90
6988;DHT22;3534;49.960;8.018;2024-02-21T05:34:26;10.00;99.90
6988;DHT22;3534;49.960;8.018;2024-02-21T05:36:53;10.00;99.90
6988;DHT22;3534;49.960;8.018;2024-02-21T05:39:19;10.00;99.90
6988;DHT22;3534;49.960;8.018;2024-02-21T05:41:48;10.00;99.90
6988;DHT22;3534;49.960;8.018;2024-02-21T05:44:15;9.90;99.90
6988;DHT22;3534;49.960;8.018;2024-02-21T05:46:42;9.90;99.90
6988;DHT22;3534;49.960;8.018;2024-02-21T05:49:08;9.80;99.90
6988;DHT22;3534;49.960;8.018;2024-02-21T05:51:36;9.80;99.90
6988;DHT22;3534;49.960;8.018;2024-02-21T05:54:03;9.80;99.90
6988;DHT22;3534;49.960;8.018;2024-02-21T05:56:30;9.70;99.90
6988;DHT22;3534;49.960;8.018;2024-02-21T05:58:56;9.70;99.90
6988;DHT22;3534;49.960;8.018;2024-02-21T06:01:23;9.70;99.90
6988;DHT22;3534;49.960;8.018;2024-02-21T06:03:50;9.70;99.90
6988;DHT22;3534;49.960;8.018;2024-02-21T06:06:16;9.70;99.90
6988;DHT22;3534;49.960;8.018;2024-02-21T06:08:44;9.60;99.90
6988;DHT22;3534;49.960;8.018;2024-02-21T06:11:11;9.60;99.90
6988;DHT22;3534;49.960;8.018;2024-02-21T06:13:40;9.60;99.90
6988;DHT22;3534;49.960;8.018;2024-02-21T06:16:07;9.60;99.90
6988;DHT22;3534;49.960;8.018;2024-02-21T06:18:35;9.60;99.90
6988;DHT22;3534;49.960;8.018;2024-02-21T06:21:02;9.60;99.90
6988;DHT22;3534;49.960;8.018;2024-02-21T06:23:29;9.50;99.90
6988;DHT22;3534;49.960;8.018;2024-02-21T06:25:57;9.50;99.90
6988;DHT22;3534;49.960;8.018;2024-02-21T06:28:24;9.50;99.90
6988;DHT22;3534;49.960;8.018;2024-02-21T06:30:50;9.50;99.90
6988;DHT22;3534;49.960;8.018;2024-02-21T06:33:17;9.50;99.90
6988;DHT22;3534;49.960;8.018;2024-02-21T06:35:48;9.50;99.90
6988;DHT22;3534;49.960;8.018;2024-02-21T06:38:17;9.50;99.90
6988;DHT22;3534;49.960;8.018;2024-02-21T06:40:44;9.50;99.90
6988;DHT22;3534;49.960;8.018;2024-02-21T06:43:17;9.50;99.90
6988;DHT22;3534;49.960;8.018;2024-02-21T06:45:43;9.40;99.90
6988;DHT22;3534;49.960;8.018;2024-02-21T06:48:12;9.50;99.90
6988;DHT22;3534;49.960;8.018;2024-02-21T06:50:39;9.40;99.90
6988;DHT22;3534;49.960;8.018;2024-02-21T06:53:06;9.50;99.90
6988;DHT22;3534;49.960;8.018;2024-02-21T06:55:33;9.40;99.90
6988;DHT22;3534;49.960;8.018;2024-02-21T06:57:59;9.50;99.90
6988;DHT22;3534;49.960;8.018;2024-02-21T07:00:28;9.50;99.90
6988;DHT22;3534;49.960;8.018;2024-02-21T07:02:55;9.40;99.90
6988;DHT22;3534;49.960;8.018;2024-02-21T07:05:22;9.40;99.90
6988;DHT22;3534;49.960;8.018;2024-02-21T07:07:48;9.40;99.90
6988;DHT22;3534;49.960;8.018;2024-02-21T07:10:15;9.50;99.90
6988;DHT22;3534;49.960;8.018;2024-02-21T07:12:42;9.50;99.90
6988;DHT22;3534;49.960;8.018;2024-02-21T07:15:08;9.50;99.90
6988;DHT22;3534;49.960;8.018;2024-02-21T07:17:36;9.50;99.90
6988;DHT22;3534;49.960;8.018;2024-02-21T07:20:04;9.50;99.90
6988;DHT22;3534;49.960;8.018;2024-02-21T07:22:31;9.60;99.90
6988;DHT22;3534;49.960;8.018;2024-02-21T07:24:57;9.60;99.90
6988;DHT22;3534;49.960;8.018;2024-02-21T07:27:24;9.60;99.90
6988;DHT22;3534;49.960;8.018;2024-02-21T07:29:53;9.60;99.90
6988;DHT22;3534;49.960;8.018;2024-02-21T07:32:20;9.70;99.90
6988;DHT22;3534;49.960;8.018;2024-02-21T07:34:48;9.70;99.90
6988;DHT22;3534;49.960;8.018;2024-02-21T07:37:14;9.70;99.90
6988;DHT22;3534;49.960;8.018;2024-02-21T07:39:41;9.70;99.90
6988;DHT22;3534;49.960;8.018;2024-02-21T07:42:08;9.70;99.90
6988;DHT22;3534;49.960;8.018;2024-02-21T07:44:34;9.80;99.90
6988;DHT22;3534;49.960;8.018;2024-02-21T07:47:01;9.80;99.90
6988;DHT22;3534;49.960;8.018;2024-02-21T07:49:28;9.80;99.90
6988;DHT22;3534;49.960;8.018;2024-02-21T07:51:56;9.90;99.90
6988;DHT22;3534;49.960;8.018;2024-02-21T07:54:23;9.90;99.90
6988;DHT22;3534;49.960;8.018;2024-02-21T07:56:49;9.90;99.90
6988;DHT22;3534;49.960;8.018;2024-02-21T07:59:16;9.90;99.90
6988;DHT22;3534;49.960;8.018;2024-02-21T08:01:43;9.90;99.90
6988;DHT22;3534;49.960;8.018;2024-02-21T08:04:11;9.90;99.90
6988;DHT22;3534;49.960;8.018;2024-02-21T08:06:37;9.90;99.90
6988;DHT22;3534;49.960;8.018;2024-02-21T08:09:05;9.90;99.90
6988;DHT22;3534;49.960;8.018;2024-02-21T08:11:32;9.90;99.90
6988;DHT22;3534;49.960;8.018;2024-02-21T08:13:59;10.00;99.90
6988;DHT22;3534;49.960;8.018;2024-02-21T08:16:26;10.00;99.90
6988;DHT22;3534;49.960;8.018;2024-02-21T08:18:53;10.00;99.90
6988;DHT22;3534;49.960;8.018;2024-02-21T08:21:20;10.00;99.90
6988;DHT22;3534;49.960;8.018;2024-02-21T08:23:46;10.00;99.90
6988;DHT22;3534;49.960;8.018;2024-02-21T08:26:18;10.00;99.90
6988;DHT22;3534;49.960;8.018;2024-02-21T08:28:45;10.00;99.90
6988;DHT22;3534;49.960;8.018;2024-02-21T08:31:18;10.00;99.90
6988;DHT22;3534;49.960;8.018;2024-02-21T08:33:45;10.00;99.90
6988;DHT22;3534;49.960;8.018;2024-02-21T08:36:17;10.00;99.90
6988;DHT22;3534;49.960;8.018;2024-02-21T08:38:44;10.00;99.90
6988;DHT22;3534;49.960;8.018;2024-02-21T08:41:11;10.00;99.90
6988;DHT22;3534;49.960;8.018;2024-02-21T08:43:39;10.00;99.90
6988;DHT22;3534;49.960;8.018;2024-02-21T08:46:06;10.00;99.90
6988;DHT22;3534;49.960;8.018;2024-02-21T08:48:33;10.00;99.90
6988;DHT22;3534;49.960;8.018;2024-02-21T08:50:59;10.00;99.90
6988;DHT22;3534;49.960;8.018;2024-02-21T08:53:26;10.00;99.90
6988;DHT22;3534;49.960;8.018;2024-02-21T08:55:54;10.00;99.90
6988;DHT22;3534;49.960;8.018;2024-02-21T08:58:20;9.90;99.90
6988;DHT22;3534;49.960;8.018;2024-02-21T09:00:50;10.00;99.90
6988;DHT22;3534;49.960;8.018;2024-02-21T09:03:17;9.90;99.90
6988;DHT22;3534;49.960;8.018;2024-02-21T09:05:45;10.00;99.90
6988;DHT22;3534;49.960;8.018;2024-02-21T09:08:12;10.00;99.90
6988;DHT22;3534;49.960;8.018;2024-02-21T09:10:39;10.00;99.90
6988;DHT22;3534;49.960;8.018;2024-02-21T09:13:06;10.00;99.90
6988;DHT22;3534;49.960;8.018;2024-02-21T09:15:33;10.10;99.90
6988;DHT22;3534;49.960;8.018;2024-02-21T09:18:02;10.10;99.90
6988;DHT22;3534;49.960;8.018;2024-02-21T09:20:28;10.20;99.90
6988;DHT22;3534;49.960;8.018;2024-02-21T09:22:55;10.20;99.90
6988;DHT22;3534;49.960;8.018;2024-02-21T09:25:22;10.20;99.90
6988;DHT22;3534;49.960;8.018;2024-02-21T09:27:48;10.20;99.90
6988;DHT22;3534;49.960;8.018;2024-02-21T09:30:17;10.20;99.90
6988;DHT22;3534;49.960;8.018;2024-02-21T09:32:44;10.20;99.90
6988;DHT22;3534;49.960;8.018;2024-02-21T09:35:12;10.20;99.90
6988;DHT22;3534;49.960;8.018;2024-02-21T09:37:39;10.30;99.90
6988;DHT22;3534;49.960;8.018;2024-02-21T09:40:09;10.30;99.90
6988;DHT22;3534;49.960;8.018;2024-02-21T09:42:38;10.30;99.90
6988;DHT22;3534;49.960;8.018;2024-02-21T09:45:08;10.30;99.90
6988;DHT22;3534;49.960;8.018;2024-02-21T09:47:42;10.30;99.90
6988;DHT22;3534;49.960;8.018;2024-02-21T09:50:12;10.30;99.90
6988;DHT22;3534;49.960;8.018;2024-02-21T09:52:40;10.30;99.90
6988;DHT22;3534;49.960;8.018;2024-02-21T09:55:09;10.40;99.90
6988;DHT22;3534;49.960;8.018;2024-02-21T09:57:39;10.50;99.90
6988;DHT22;3534;49.960;8.018;2024-02-21T10:00:07;10.60;99.90
6988;DHT22;3534;49.960;8.018;2024-02-21T10:02:34;10.60;99.90
6988;DHT22;3534;49.960;8.018;2024-02-21T10:05:01;10.70;99.90
6988;DHT22;3534;49.960;8.018;2024-02-21T10:07:30;10.70;99.90
6988;DHT22;3534;49.960;8.018;2024-02-21T10:10:01;10.80;99.90
6988;DHT22;3534;49.960;8.018;2024-02-21T10:12:28;10.90;99.90
6988;DHT22;3534;49.960;8.018;2024-02-21T10:15:00;10.90;99.90
6988;DHT22;3534;49.960;8.018;2024-02-21T10:17:27;10.90;99.90
6988;DHT22;3534;49.960;8.018;2024-02-21T10:19:54;10.90;99.90
6988;DHT22;3534;49.960;8.018;2024-02-21T10:22:20;10.90;99.90
6988;DHT22;3534;49.960;8.018;2024-02-21T10:24:48;11.00;99.90
6988;DHT22;3534;49.960;8.018;2024-02-21T10:27:15;11.00;99.90
6988;DHT22;3534;49.960;8.018;2024-02-21T10:29:42;11.00;99.90
6988;DHT22;3534;49.960;8.018;2024-02-21T10:32:09;11.10;99.90
6988;DHT22;3534;49.960;8.018;2024-02-21T10:34:38;11.10;99.90
6988;DHT22;3534;49.960;8.018;2024-02-21T10:37:07;11.10;99.90
6988;DHT22;3534;49.960;8.018;2024-02-21T10:39:37;11.20;99.90
6988;DHT22;3534;49.960;8.018;2024-02-21T10:42:05;11.20;99.90
6988;DHT22;3534;49.960;8.018;2024-02-21T10:44:35;11.30;99.90
6988;DHT22;3534;49.960;8.018;2024-02-21T10:47:07;11.30;99.90
6988;DHT22;3534;49.960;8.018;2024-02-21T10:49:38;11.30;99.90
6988;DHT22;3534;49.960;8.018;2024-02-21T10:52:09;11.30;99.90
6988;DHT22;3534;49.960;8.018;2024-02-21T10:54:44;11.40;99.90
6988;DHT22;3534;49.960;8.018;2024-02-21T10:57:14;11.40;99.90
6988;DHT22;3534;49.960;8.018;2024-02-21T10:59:41;11.40;99.90
6988;DHT22;3534;49.960;8.018;2024-02-21T11:02:09;11.50;99.90
6988;DHT22;3534;49.960;8.018;2024-02-21T11:04:36;11.50;99.90
6988;DHT22;3534;49.960;8.018;2024-02-21T11:07:04;11.50;99.90
6988;DHT22;3534;49.960;8.018;2024-02-21T11:09:32;11.60;99.90
6988;DHT22;3534;49.960;8.018;2024-02-21T11:12:01;11.50;99.90
6988;DHT22;3534;49.960;8.018;2024-02-21T11:14:31;11.60;99.90
6988;DHT22;3534;49.960;8.018;2024-02-21T11:17:01;11.60;99.90
6988;DHT22;3534;49.960;8.018;2024-02-21T11:19:29;11.70;99.90
6988;DHT22;3534;49.960;8.018;2024-02-21T11:21:57;11.70;99.90
6988;DHT22;3534;49.960;8.018;2024-02-21T11:24:27;11.70;99.90
6988;DHT22;3534;49.960;8.018;2024-02-21T11:26:54;11.80;99.90
6988;DHT22;3534;49.960;8.018;2024-02-21T11:29:24;11.90;99.90
6988;DHT22;3534;49.960;8.018;2024-02-21T11:31:53;11.80;99.90
6988;DHT22;3534;49.960;8.018;2024-02-21T11:34:20;11.80;99.90
6988;DHT22;3534;49.960;8.018;2024-02-21T11:36:47;11.80;99.90
6988;DHT22;3534;49.960;8.018;2024-02-21T11:39:19;11.80;99.90
6988;DHT22;3534;49.960;8.018;2024-02-21T11:41:47;11.80;99.90
6988;DHT22;3534;49.960;8.018;2024-02-21T11:44:14;11.80;99.90
6988;DHT22;3534;49.960;8.018;2024-02-21T11:46:40;11.80;99.90
6988;DHT22;3534;49.960;8.018;2024-02-21T11:49:09;11.80;99.90
6988;DHT22;3534;49.960;8.018;2024-02-21T11:51:36;11.90;99.90
6988;DHT22;3534;49.960;8.018;2024-02-21T11:54:03;11.80;99.90
6988;DHT22;3534;49.960;8.018;2024-02-21T11:56:30;11.90;99.90
6988;DHT22;3534;49.960;8.018;2024-02-21T11:58:58;11.90;99.90
6988;DHT22;3534;49.960;8.018;2024-02-21T12:01:25;11.90;99.90
6988;DHT22;3534;49.960;8.018;2024-02-21T12:03:52;11.90;99.90
6988;DHT22;3534;49.960;8.018;2024-02-21T12:06:21;12.00;99.90
6988;DHT22;3534;49.960;8.018;2024-02-21T12:08:47;12.00;99.90
6988;DHT22;3534;49.960;8.018;2024-02-21T12:11:19;12.10;99.90
6988;DHT22;3534;49.960;8.018;2024-02-21T12:13:46;12.10;99.90
6988;DHT22;3534;49.960;8.018;2024-02-21T12:16:15;12.20;99.90
6988;DHT22;3534;49.960;8.018;2024-02-21T12:18:43;12.20;99.90
6988;DHT22;3534;49.960;8.018;2024-02-21T12:21:10;12.20;99.90
6988;DHT22;3534;49.960;8.018;2024-02-21T12:23:39;12.20;99.90
6988;DHT22;3534;49.960;8.018;2024-02-21T12:26:06;12.20;99.90
6988;DHT22;3534;49.960;8.018;2024-02-21T12:28:33;12.20;99.90
6988;DHT22;3534;49.960;8.018;2024-02-21T12:31:00;12.20;99.90
6988;DHT22;3534;49.960;8.018;2024-02-21T12:33:29;12.20;99.90
6988;DHT22;3534;49.960;8.018;2024-02-21T12:35:56;12.20;99.90
6988;DHT22;3534;49.960;8.018;2024-02-21T12:38:22;12.20;99.90
6988;DHT22;3534;49.960;8.018;2024-02-21T12:40:50;12.20;99.90
6988;DHT22;3534;49.960;8.018;2024-02-21T12:43:17;12.20;99.90
6988;DHT22;3534;49.960;8.018;2024-02-21T12:45:45;12.20;99.90
6988;DHT22;3534;49.960;8.018;2024-02-21T12:48:11;12.20;99.90
6988;DHT22;3534;49.960;8.018;2024-02-21T12:50:40;12.30;99.90
6988;DHT22;3534;49.960;8.018;2024-02-21T12:53:10;12.30;99.90
6988;DHT22;3534;49.960;8.018;2024-02-21T12:55:37;12.30;99.90
6988;DHT22;3534;49.960;8.018;2024-02-21T12:58:05;12.20;99.90
6988;DHT22;3534;49.960;8.018;2024-02-21T13:00:32;12.30;99.90
6988;DHT22;3534;49.960;8.018;2024-02-21T13:03:01;12.30;99.90
6988;DHT22;3534;49.960;8.018;2024-02-21T13:05:28;12.30;99.90
6988;DHT22;3534;49.960;8.018;2024-02-21T13:07:55;12.30;99.90
6988;DHT22;3534;49.960;8.018;2024-02-21T13:10:21;12.40;99.90
6988;DHT22;3534;49.960;8.018;2024-02-21T13:12:48;12.30;99.90
6988;DHT22;3534;49.960;8.018;2024-02-21T13:15:16;12.30;99.90
6988;DHT22;3534;49.960;8.018;2024-02-21T13:17:43;12.30;99.90
6988;DHT22;3534;49.960;8.018;2024-02-21T13:20:11;12.30;99.90
6988;DHT22;3534;49.960;8.018;2024-02-21T13:22:38;12.30;99.90
6988;DHT22;3534;49.960;8.018;2024-02-21T13:25:05;12.30;99.90
6988;DHT22;3534;49.960;8.018;2024-02-21T13:27:33;12.30;99.90
6988;DHT22;3534;49.960;8.018;2024-02-21T13:29:59;12.40;99.90
6988;DHT22;3534;49.960;8.018;2024-02-21T13:32:32;12.40;99.90
6988;DHT22;3534;49.960;8.018;2024-02-21T13:34:59;12.40;99.90
6988;DHT22;3534;49.960;8.018;2024-02-21T13:37:26;12.50;99.90
6988;DHT22;3534;49.960;8.018;2024-02-21T13:39:54;12.50;99.90
6988;DHT22;3534;49.960;8.018;2024-02-21T13:42:21;12.50;99.90
6988;DHT22;3534;49.960;8.018;2024-02-21T13:44:49;12.50;99.90
6988;DHT22;3534;49.960;8.018;2024-02-21T13:47:16;12.50;99.90
6988;DHT22;3534;49.960;8.018;2024-02-21T13:49:44;12.60;99.90
6988;DHT22;3534;49.960;8.018;2024-02-21T13:52:10;12.60;99.90
6988;DHT22;3534;49.960;8.018;2024-02-21T13:54:37;12.60;99.90
6988;DHT22;3534;49.960;8.018;2024-02-21T13:57:04;12.60;99.90
6988;DHT22;3534;49.960;8.018;2024-02-21T13:59:31;12.60;99.90
6988;DHT22;3534;49.960;8.018;2024-02-21T14:01:58;12.60;99.90
6988;DHT22;3534;49.960;8.018;2024-02-21T14:04:25;12.60;99.90
6988;DHT22;3534;49.960;8.018;2024-02-21T14:06:54;12.60;99.90
6988;DHT22;3534;49.960;8.018;2024-02-21T14:09:20;12.60;99.90
6988;DHT22;3534;49.960;8.018;2024-02-21T14:11:47;12.60;99.90
6988;DHT22;3534;49.960;8.018;2024-02-21T14:14:14;12.60;99.90
6988;DHT22;3534;49.960;8.018;2024-02-21T14:16:41;12.60;99.90
6988;DHT22;3534;49.960;8.018;2024-02-21T14:19:08;12.70;99.90
6988;DHT22;3534;49.960;8.018;2024-02-21T14:21:37;12.70;99.90
6988;DHT22;3534;49.960;8.018;2024-02-21T14:24:05;12.70;99.90
6988;DHT22;3534;49.960;8.018;2024-02-21T14:26:32;12.70;99.90
6988;DHT22;3534;49.960;8.018;2024-02-21T14:29:01;12.70;99.90
6988;DHT22;3534;49.960;8.018;2024-02-21T14:31:29;12.70;99.90
6988;DHT22;3534;49.960;8.018;2024-02-21T14:33:57;12.80;99.90
6988;DHT22;3534;49.960;8.018;2024-02-21T14:36:25;12.80;99.90
6988;DHT22;3534;49.960;8.018;2024-02-21T14:38:52;12.80;99.90
6988;DHT22;3534;49.960;8.018;2024-02-21T14:41:20;12.80;99.90
6988;DHT22;3534;49.960;8.018;2024-02-21T14:43:47;12.80;99.90
6988;DHT22;3534;49.960;8.018;2024-02-21T14:46:13;12.80;99.90
6988;DHT22;3534;49.960;8.018;2024-02-21T14:48:40;12.80;99.90
6988;DHT22;3534;49.960;8.018;2024-02-21T14:51:07;12.80;99.90
6988;DHT22;3534;49.960;8.018;2024-02-21T14:53:33;12.80;99.90
6988;DHT22;3534;49.960;8.018;2024-02-21T14:56:00;12.80;99.90
6988;DHT22;3534;49.960;8.018;2024-02-21T14:58:28;12.70;99.90
6988;DHT22;3534;49.960;8.018;2024-02-21T15:00:56;12.80;99.90
6988;DHT22;3534;49.960;8.018;2024-02-21T15:03:23;12.70;99.90
6988;DHT22;3534;49.960;8.018;2024-02-21T15:05:52;12.70;99.90
6988;DHT22;3534;49.960;8.018;2024-02-21T15:08:19;12.70;99.90
6988;DHT22;3534;49.960;8.018;2024-02-21T15:10:46;12.70;99.90
6988;DHT22;3534;49.960;8.018;2024-02-21T15:13:13;12.60;99.90
6988;DHT22;3534;49.960;8.018;2024-02-21T15:15:41;12.60;99.90
6988;DHT22;3534;49.960;8.018;2024-02-21T15:18:08;12.60;99.90
6988;DHT22;3534;49.960;8.018;2024-02-21T15:20:34;12.60;99.90
6988;DHT22;3534;49.960;8.018;2024-02-21T15:23:02;12.60;99.90
6988;DHT22;3534;49.960;8.018;2024-02-21T15:25:30;12.60;99.90
6988;DHT22;3534;49.960;8.018;2024-02-21T15:27:57;12.60;99.90
6988;DHT22;3534;49.960;8.018;2024-02-21T15:30:24;12.60;99.90
6988;DHT22;3534;49.960;8.018;2024-02-21T15:32:53;12.60;99.90
6988;DHT22;3534;49.960;8.018;2024-02-21T15:35:21;12.60;99.90
6988;DHT22;3534;49.960;8.018;2024-02-21T15:37:47;12.50;99.90
6988;DHT22;3534;49.960;8.018;2024-02-21T15:40:14;12.50;99.90
6988;DHT22;3534;49.960;8.018;2024-02-21T15:42:41;12.50;99.90
6988;DHT22;3534;49.960;8.018;2024-02-21T15:45:08;12.50;99.90
6988;DHT22;3534;49.960;8.018;2024-02-21T15:47:35;12.40;99.90
6988;DHT22;3534;49.960;8.018;2024-02-21T15:50:04;12.40;99.90
6988;DHT22;3534;49.960;8.018;2024-02-21T15:52:31;12.40;99.90
6988;DHT22;3534;49.960;8.018;2024-02-21T15:54:58;12.40;99.90
6988;DHT22;3534;49.960;8.018;2024-02-21T15:57:24;12.40;99.90
6988;DHT22;3534;49.960;8.018;2024-02-21T15:59:51;12.40;99.90
6988;DHT22;3534;49.960;8.018;2024-02-21T16:02:19;12.40;99.90
6988;DHT22;3534;49.960;8.018;2024-02-21T16:04:46;12.40;99.90